»·PEaware :: N5157Z KCMA-KSNA

N5157Z :: KCMA-KSNA

FLIGHT INFORMATION

Flight Status: Arrived
Operator: Privately registered:
United States
More flights under this callsign
Pilot: Matt L. (27725)
Aircraft: CESSNA 172 SKYHAWK
(C172)
More flights by this aircraft type
Origin: KCMA Camarillo
United States
Destination: KSNA John Wayne-Orange Co
United States
More flights between these airports :: More routes between these airports
Route: COASTAL ROUTE
File this flight plan on PilotEdge
Remarks:
Altitude:
(Current/Filed)
5,500ft
Speed:
(Current/Filed)
125kts
Departed: 11-Feb-20 07:48 PM
Arrived: 11-Feb-20 08:33 PM
Distance/Time
Traveled:
69nm/0:45
Distance/Time
To Go:
Arrived

Flight Plot

Page will automatically refresh every two minutes.


Map Options




Map Legend


Flown Route
Filed Route
Departure Airport
Arrival Airport
Navaid (VOR, NDB)
Fix

Horizontal Profiles

Position Reports

Time Latitude Longitude Heading Altitude Ground
Speed
11-Feb-20 19:21 34.210774 -119.093275 2 81ft 0kts
11-Feb-20 19:22 34.210774 -119.093275 2 81ft 0kts
11-Feb-20 19:23 34.210774 -119.093275 2 81ft 0kts
11-Feb-20 19:24 34.210774 -119.093275 2 81ft 0kts
11-Feb-20 19:25 34.210774 -119.093275 2 81ft 0kts
11-Feb-20 19:26 34.210774 -119.093275 2 81ft 0kts
11-Feb-20 19:28 34.210774 -119.093275 2 81ft 0kts
11-Feb-20 19:29 34.210774 -119.093275 2 81ft 0kts
11-Feb-20 19:30 34.210774 -119.093275 2 81ft 0kts
11-Feb-20 19:31 34.210774 -119.093275 2 81ft 0kts
11-Feb-20 19:32 34.210774 -119.093275 2 81ft 0kts
11-Feb-20 19:33 34.210774 -119.093275 2 81ft 0kts
11-Feb-20 19:34 34.210774 -119.093275 2 81ft 0kts
11-Feb-20 19:35 34.210774 -119.093275 2 81ft 0kts
11-Feb-20 19:36 34.210774 -119.093275 2 81ft 0kts
11-Feb-20 19:37 34.210774 -119.093275 2 81ft 0kts
11-Feb-20 19:38 34.210774 -119.093275 2 81ft 0kts
11-Feb-20 19:39 34.210774 -119.093275 2 81ft 0kts
11-Feb-20 19:40 34.210774 -119.093275 2 81ft 0kts
11-Feb-20 19:41 34.210774 -119.093275 2 81ft 0kts
11-Feb-20 19:42 34.210979 -119.090529 90 81ft 15kts
11-Feb-20 19:43 34.210943 -119.085159 86 81ft 13kts
11-Feb-20 19:44 34.212516 -119.084609 359 81ft 0kts
11-Feb-20 19:45 34.212516 -119.084609 359 81ft 0kts
11-Feb-20 19:46 34.212516 -119.084609 359 81ft 0kts
11-Feb-20 19:46 34.212517 -119.084609 359 81ft 0kts
11-Feb-20 19:48 34.213789 -119.094469 269 181ft 80kts
11-Feb-20 19:49 34.212922 -119.120931 246 969ft 80kts
11-Feb-20 19:50 34.198187 -119.113522 89 1714ft 88kts
11-Feb-20 19:50 34.201479 -119.089172 73 2314ft 88kts
11-Feb-20 19:51 34.208946 -119.060518 63 3015ft 91kts
11-Feb-20 19:52 34.215657 -119.030910 89 3648ft 95kts
11-Feb-20 19:53 34.218700 -118.998649 74 4233ft 98kts
11-Feb-20 19:54 34.220282 -118.965257 89 4804ft 101kts
11-Feb-20 19:56 34.219277 -118.925366 86 5440ft 102kts
11-Feb-20 19:56 34.218730 -118.894394 89 5512ft 112kts
11-Feb-20 19:57 34.217809 -118.856952 85 5572ft 111kts
11-Feb-20 19:58 34.218664 -118.818887 82 5464ft 125kts
11-Feb-20 19:59 34.220771 -118.779326 83 5548ft 114kts
11-Feb-20 20:00 34.222317 -118.740586 87 5544ft 115kts
11-Feb-20 20:01 34.224352 -118.701621 85 5552ft 116kts
11-Feb-20 20:02 34.225034 -118.667099 96 5528ft 96kts
11-Feb-20 20:03 34.221559 -118.635112 87 5499ft 96kts
11-Feb-20 20:04 34.211717 -118.605666 109 5490ft 100kts
11-Feb-20 20:05 34.203531 -118.575487 90 5544ft 92kts
11-Feb-20 20:06 34.188419 -118.552283 164 5552ft 106kts
11-Feb-20 20:07 34.158851 -118.548777 162 5598ft 103kts
11-Feb-20 20:08 34.130374 -118.538560 154 5550ft 114kts
11-Feb-20 20:09 34.099749 -118.523926 162 5541ft 123kts
11-Feb-20 20:10 34.069851 -118.497815 158 5532ft 135kts
11-Feb-20 20:11 34.035141 -118.480907 164 5567ft 136kts
11-Feb-20 20:12 33.998830 -118.465144 163 5528ft 139kts
11-Feb-20 20:13 33.962917 -118.446198 157 5524ft 142kts
11-Feb-20 20:14 33.927310 -118.424561 136 5485ft 148kts
11-Feb-20 20:15 33.895316 -118.394540 138 5531ft 146kts
11-Feb-20 20:16 33.864344 -118.362629 144 5537ft 146kts
11-Feb-20 20:17 33.835879 -118.328385 138 5533ft 146kts
11-Feb-20 20:18 33.805704 -118.295708 136 5543ft 145kts
11-Feb-20 20:19 33.777388 -118.261072 132 5549ft 145kts
11-Feb-20 20:20 33.748438 -118.227148 135 5556ft 145kts
11-Feb-20 20:21 33.726981 -118.187801 107 4858ft 142kts
11-Feb-20 20:22 33.715501 -118.142126 111 4259ft 146kts
11-Feb-20 20:23 33.702257 -118.095253 100 3726ft 133kts
11-Feb-20 20:24 33.695536 -118.051532 99 3405ft 134kts
11-Feb-20 20:25 33.687624 -118.007555 96 2598ft 134kts
11-Feb-20 20:26 33.682366 -117.960985 96 1345ft 132kts
11-Feb-20 20:27 33.678705 -117.927085 97 1324ft 96kts
11-Feb-20 20:28 33.676403 -117.893963 88 1362ft 107kts
11-Feb-20 20:29 33.672918 -117.861009 93 1366ft 100kts
11-Feb-20 20:30 33.690029 -117.845534 301 1151ft 75kts
11-Feb-20 20:31 33.681983 -117.862979 211 104ft 62kts
11-Feb-20 20:32 33.676742 -117.865297 118 60ft 0kts
11-Feb-20 20:33 33.673401 -117.866019 3 60ft 2kts

Navigation Log

Ident Type
Flight plan parsing failed, navigation log unavailable